PGT05MA EBBR-LTFJ
Flight info
| Callsign | PGT05MA |
|---|---|
| Flight time | N/A |
| Altitude | 35000 |
| Route | SOPOK Y863 OGLOR DCT VIBOM DCT NOMBO DCT RIDAR DCT GOMIG DCT GOLVA DCT OBUTI DCT LAKIK DCT ETIDA DCT BUFRA DCT ADORU UM19 IBODU |
| Aircraft | A321/M-SDE3FGHIRWY/LB1 |
Departure
| Time | 2026-05-05 18:45 |
|---|---|
| Airport | Brussels Airport (EBBR) |
Arrival
| Time | N/A |
|---|---|
| Airport | Istanbul Sabiha Gökçen International Airport (LTFJ) |
| Time | Latitude | Longitude | Altitude | Speed | Heading |
|---|---|---|---|---|---|
| 2026-05-05 18:13 | 50.90439 | 4.48669 | 121 ft | 0 kts | 155° |
| 2026-05-05 18:31 | 50.90458 | 4.48655 | 116 ft | 4 kts | 149° |
| 2026-05-05 18:31 | 50.90480 | 4.48631 | 117 ft | 4 kts | 136° |
| 2026-05-05 18:31 | 50.90497 | 4.48599 | 116 ft | 4 kts | 109° |
| 2026-05-05 18:32 | 50.90499 | 4.48568 | 116 ft | 1 kts | 65° |
| 2026-05-05 18:32 | 50.90497 | 4.48561 | 116 ft | 0 kts | 65° |
| 2026-05-05 18:35 | 50.90501 | 4.48578 | 116 ft | 6 kts | 65° |
| 2026-05-05 18:35 | 50.90536 | 4.48697 | 117 ft | 14 kts | 65° |
| 2026-05-05 18:36 | 50.90574 | 4.48829 | 117 ft | 12 kts | 65° |
| 2026-05-05 18:36 | 50.90605 | 4.48937 | 119 ft | 10 kts | 65° |
| 2026-05-05 18:36 | 50.90627 | 4.49011 | 117 ft | 2 kts | 65° |
| 2026-05-05 18:36 | 50.90630 | 4.49021 | 118 ft | 0 kts | 65° |
| 2026-05-05 18:37 | 50.90638 | 4.49050 | 117 ft | 8 kts | 65° |
| 2026-05-05 18:37 | 50.90604 | 4.49164 | 121 ft | 16 kts | 152° |
| 2026-05-05 18:37 | 50.90512 | 4.49231 | 121 ft | 13 kts | 155° |
| 2026-05-05 18:37 | 50.90433 | 4.49290 | 121 ft | 11 kts | 155° |
| 2026-05-05 18:38 | 50.90354 | 4.49352 | 123 ft | 14 kts | 145° |
| 2026-05-05 18:38 | 50.90275 | 4.49397 | 126 ft | 13 kts | 186° |
| 2026-05-05 18:38 | 50.90178 | 4.49362 | 129 ft | 16 kts | 194° |
| 2026-05-05 18:38 | 50.90045 | 4.49307 | 131 ft | 24 kts | 195° |
| 2026-05-05 18:39 | 50.89898 | 4.49247 | 138 ft | 18 kts | 194° |
| 2026-05-05 18:39 | 50.89798 | 4.49207 | 143 ft | 11 kts | 194° |
| 2026-05-05 18:39 | 50.89725 | 4.49178 | 147 ft | 12 kts | 194° |
| 2026-05-05 18:39 | 50.89637 | 4.49129 | 153 ft | 15 kts | 213° |
| 2026-05-05 18:40 | 50.89524 | 4.49049 | 157 ft | 21 kts | 194° |
| 2026-05-05 18:40 | 50.89397 | 4.48999 | 161 ft | 16 kts | 195° |
| 2026-05-05 18:40 | 50.89362 | 4.48999 | 163 ft | 0 kts | 137° |
| 2026-05-05 18:40 | 50.89361 | 4.49002 | 163 ft | 1 kts | 121° |
| 2026-05-05 18:41 | 50.89356 | 4.49062 | 165 ft | 6 kts | 121° |
| 2026-05-05 18:41 | 50.89348 | 4.49077 | 166 ft | 0 kts | 141° |
| 2026-05-05 18:42 | 50.89304 | 4.49081 | 168 ft | 11 kts | 193° |
| 2026-05-05 18:42 | 50.89294 | 4.49077 | 168 ft | 0 kts | 193° |
| 2026-05-05 18:42 | 50.89292 | 4.49077 | 168 ft | 2 kts | 193° |
| 2026-05-05 18:43 | 50.89244 | 4.49059 | 172 ft | 12 kts | 194° |
| 2026-05-05 18:43 | 50.89168 | 4.49053 | 176 ft | 6 kts | 142° |
| 2026-05-05 18:43 | 50.89152 | 4.49101 | 176 ft | 6 kts | 101° |
| 2026-05-05 18:43 | 50.89166 | 4.49176 | 176 ft | 8 kts | 68° |
| 2026-05-05 18:44 | 50.89167 | 4.49180 | 176 ft | 0 kts | 68° |
| 2026-05-05 18:44 | 50.89168 | 4.49183 | 176 ft | 3 kts | 68° |
| 2026-05-05 18:44 | 50.89241 | 4.49492 | 176 ft | 65 kts | 70° |
| 2026-05-05 18:45 | 50.89465 | 4.50474 | 176 ft | 122 kts | 70° |
| 2026-05-05 18:45 | 50.89807 | 4.51979 | 172 ft | 166 kts | 71° |
| 2026-05-05 18:45 | 50.90176 | 4.53732 | 737 ft | 162 kts | 69° |
| 2026-05-05 18:45 | 50.90567 | 4.55419 | 1420 ft | 161 kts | 64° |
| 2026-05-05 18:46 | 50.91056 | 4.56956 | 2081 ft | 159 kts | 58° |
| 2026-05-05 18:46 | 50.91645 | 4.58581 | 2378 ft | 180 kts | 57° |
| 2026-05-05 18:46 | 50.92299 | 4.60377 | 2596 ft | 202 kts | 58° |
| 2026-05-05 18:46 | 50.93032 | 4.62431 | 2807 ft | 228 kts | 59° |
| 2026-05-05 18:47 | 50.93759 | 4.64771 | 3325 ft | 243 kts | 69° |
| 2026-05-05 18:47 | 50.94287 | 4.67348 | 4037 ft | 249 kts | 71° |
| 2026-05-05 18:47 | 50.94811 | 4.70008 | 4663 ft | 255 kts | 71° |
| 2026-05-05 18:47 | 50.95335 | 4.72718 | 5166 ft | 259 kts | 73° |
| 2026-05-05 18:48 | 50.95523 | 4.75567 | 5674 ft | 264 kts | 94° |
| 2026-05-05 18:48 | 50.95006 | 4.78388 | 6198 ft | 271 kts | 116° |
| 2026-05-05 18:48 | 50.93820 | 4.80731 | 6691 ft | 276 kts | 138° |
| 2026-05-05 18:48 | 50.92329 | 4.82676 | 7186 ft | 279 kts | 139° |
| 2026-05-05 18:49 | 50.90827 | 4.84630 | 7676 ft | 280 kts | 139° |
| 2026-05-05 18:49 | 50.89274 | 4.86524 | 8195 ft | 283 kts | 147° |
| 2026-05-05 18:49 | 50.87481 | 4.87836 | 8707 ft | 286 kts | 162° |
| 2026-05-05 18:49 | 50.85515 | 4.88404 | 9242 ft | 289 kts | 174° |
| 2026-05-05 18:50 | 50.83509 | 4.88704 | 9770 ft | 290 kts | 174° |
| 2026-05-05 18:50 | 50.81519 | 4.89008 | 10245 ft | 296 kts | 174° |
| 2026-05-05 18:50 | 50.79437 | 4.89332 | 10741 ft | 305 kts | 174° |
| 2026-05-05 18:50 | 50.77300 | 4.89671 | 11255 ft | 313 kts | 174° |
| 2026-05-05 18:51 | 50.75099 | 4.90022 | 11748 ft | 321 kts | 174° |
| 2026-05-05 18:51 | 50.72849 | 4.90395 | 12265 ft | 329 kts | 171° |
| 2026-05-05 18:51 | 50.70606 | 4.91275 | 12788 ft | 336 kts | 159° |
| 2026-05-05 18:51 | 50.68499 | 4.92919 | 13313 ft | 342 kts | 147° |
| 2026-05-05 18:52 | 50.66636 | 4.95307 | 13840 ft | 349 kts | 135° |
| 2026-05-05 18:52 | 50.65132 | 4.98344 | 14303 ft | 356 kts | 122° |
| 2026-05-05 18:52 | 50.64072 | 5.01910 | 14798 ft | 363 kts | 110° |
| 2026-05-05 18:52 | 50.63294 | 5.05727 | 15289 ft | 368 kts | 109° |
| 2026-05-05 18:53 | 50.62499 | 5.09596 | 15793 ft | 373 kts | 109° |
| 2026-05-05 18:53 | 50.61692 | 5.13499 | 16313 ft | 377 kts | 109° |
| 2026-05-05 18:53 | 50.60886 | 5.17392 | 16810 ft | 381 kts | 109° |
| 2026-05-05 18:53 | 50.60059 | 5.21369 | 17347 ft | 384 kts | 109° |
| 2026-05-05 18:54 | 50.59223 | 5.25376 | 17879 ft | 387 kts | 110° |
| 2026-05-05 18:54 | 50.58063 | 5.29168 | 18378 ft | 386 kts | 127° |
| 2026-05-05 18:54 | 50.56248 | 5.32248 | 18854 ft | 385 kts | 139° |
| 2026-05-05 18:54 | 50.54252 | 5.35071 | 19336 ft | 387 kts | 139° |
| 2026-05-05 18:55 | 50.52265 | 5.37933 | 19824 ft | 388 kts | 138° |
| 2026-05-05 18:55 | 50.50954 | 5.39848 | 20150 ft | 389 kts | 138° |
| 2026-05-05 18:55 | 50.48977 | 5.42758 | 20653 ft | 390 kts | 137° |
| 2026-05-05 18:55 | 50.47010 | 5.45667 | 21165 ft | 390 kts | 137° |
| 2026-05-05 18:56 | 50.45028 | 5.48601 | 21681 ft | 391 kts | 137° |
| 2026-05-05 18:56 | 50.43050 | 5.51520 | 22210 ft | 391 kts | 137° |
| 2026-05-05 18:56 | 50.41063 | 5.54440 | 22747 ft | 391 kts | 137° |
| 2026-05-05 18:56 | 50.39073 | 5.57353 | 23294 ft | 390 kts | 137° |
| 2026-05-05 18:57 | 50.37088 | 5.60247 | 23777 ft | 390 kts | 137° |
| 2026-05-05 18:57 | 50.35106 | 5.63127 | 24245 ft | 389 kts | 137° |
| 2026-05-05 18:57 | 50.33127 | 5.66000 | 24719 ft | 387 kts | 137° |
| 2026-05-05 18:57 | 50.31155 | 5.68858 | 25203 ft | 386 kts | 137° |
| 2026-05-05 18:58 | 50.29196 | 5.71711 | 25696 ft | 384 kts | 135° |
| 2026-05-05 18:58 | 50.27418 | 5.74807 | 26197 ft | 382 kts | 128° |
| 2026-05-05 18:58 | 50.25928 | 5.78225 | 26692 ft | 379 kts | 121° |
| 2026-05-05 18:58 | 50.24741 | 5.81894 | 27225 ft | 377 kts | 113° |
| 2026-05-05 18:59 | 50.23871 | 5.85738 | 27757 ft | 374 kts | 106° |
| 2026-05-05 18:59 | 50.23217 | 5.89657 | 28300 ft | 371 kts | 105° |
| 2026-05-05 18:59 | 50.22569 | 5.93532 | 28855 ft | 367 kts | 106° |
| 2026-05-05 18:59 | 50.21919 | 5.97367 | 29410 ft | 362 kts | 106° |
| 2026-05-05 19:00 | 50.21286 | 6.01094 | 29963 ft | 357 kts | 106° |
| 2026-05-05 19:00 | 50.20651 | 6.04825 | 30449 ft | 351 kts | 106° |
| 2026-05-05 19:00 | 50.20029 | 6.08465 | 30853 ft | 348 kts | 107° |
| 2026-05-05 19:00 | 50.19403 | 6.12126 | 31097 ft | 350 kts | 107° |
| 2026-05-05 19:01 | 50.18813 | 6.15815 | 31343 ft | 351 kts | 102° |
| 2026-05-05 19:01 | 50.18487 | 6.19602 | 31576 ft | 354 kts | 96° |
| 2026-05-05 19:01 | 50.18473 | 6.23461 | 31801 ft | 357 kts | 89° |
| 2026-05-05 19:01 | 50.18710 | 6.27329 | 32015 ft | 359 kts | 87° |
| 2026-05-05 19:02 | 50.18960 | 6.31216 | 32232 ft | 360 kts | 88° |
| 2026-05-05 19:02 | 50.19204 | 6.35108 | 32450 ft | 361 kts | 88° |
| 2026-05-05 19:02 | 50.19445 | 6.39017 | 32679 ft | 363 kts | 88° |
| 2026-05-05 19:02 | 50.19685 | 6.42948 | 32889 ft | 364 kts | 88° |
| 2026-05-05 19:03 | 50.19921 | 6.46883 | 33100 ft | 365 kts | 88° |
| 2026-05-05 19:03 | 50.20156 | 6.50830 | 33290 ft | 366 kts | 88° |
| 2026-05-05 19:03 | 50.20394 | 6.54794 | 33491 ft | 367 kts | 88° |
| 2026-05-05 19:03 | 50.20594 | 6.58774 | 33676 ft | 367 kts | 93° |
| 2026-05-05 19:04 | 50.20489 | 6.62732 | 33856 ft | 365 kts | 100° |
| 2026-05-05 19:04 | 50.20035 | 6.66628 | 33998 ft | 364 kts | 108° |
| 2026-05-05 19:04 | 50.19250 | 6.70376 | 34122 ft | 364 kts | 115° |
| 2026-05-05 19:04 | 50.18247 | 6.73951 | 34235 ft | 365 kts | 116° |
| 2026-05-05 19:05 | 50.17206 | 6.77629 | 34353 ft | 367 kts | 116° |
| 2026-05-05 19:05 | 50.16186 | 6.81242 | 34449 ft | 370 kts | 116° |
| 2026-05-05 19:05 | 50.14085 | 6.88664 | 34606 ft | 377 kts | 116° |
| 2026-05-05 19:06 | 50.13025 | 6.92401 | 34758 ft | 378 kts | 116° |
| 2026-05-05 19:06 | 50.11955 | 6.96165 | 34811 ft | 382 kts | 116° |
| 2026-05-05 19:06 | 50.09764 | 7.03851 | 34807 ft | 394 kts | 116° |
| 2026-05-05 19:07 | 50.07505 | 7.11772 | 34817 ft | 406 kts | 116° |
| 2026-05-05 19:07 | 50.05176 | 7.19900 | 34845 ft | 417 kts | 116° |